createdAt,value
2023-02-14T00:02:14.751Z,100452.06
2023-02-14T00:07:38.772Z,100467.13
2023-02-14T00:13:09.761Z,100469.91
2023-02-14T00:18:57.727Z,100464.91
2023-02-14T00:24:25.751Z,100456.28
2023-02-14T00:29:50.808Z,100461.84
2023-02-14T00:35:19.022Z,100442.72
2023-02-14T00:40:45.768Z,100444.81
2023-02-14T00:46:10.810Z,100441.38
2023-02-14T00:51:38.752Z,100434.59
2023-02-14T00:57:02.774Z,100431.22
2023-02-14T01:02:27.876Z,100441.97
2023-02-14T01:07:54.811Z,100434.16
2023-02-14T01:13:26.779Z,100414.19
2023-02-14T01:18:52.775Z,100415.28
2023-02-14T01:24:22.763Z,100403.19
2023-02-14T01:29:47.826Z,100407.78
2023-02-14T01:35:11.784Z,100408.91
2023-02-14T01:40:39.980Z,100395.09
2023-02-14T01:46:04.866Z,100395.25
2023-02-14T01:51:31.829Z,100391.00
2023-02-14T01:57:03.801Z,100394.59
2023-02-14T02:02:30.896Z,100387.72
2023-02-14T02:07:55.826Z,100393.09
2023-02-14T02:13:28.817Z,100386.94
2023-02-14T02:19:09.836Z,100391.38
2023-02-14T02:24:50.837Z,100396.69
2023-02-14T02:30:29.095Z,100393.22
2023-02-14T02:36:25.829Z,100391.50
2023-02-14T02:41:59.822Z,100387.13
2023-02-14T02:47:33.843Z,100395.03
2023-02-14T02:53:15.878Z,100402.19
2023-02-14T02:58:46.834Z,100399.72
2023-02-14T03:04:28.960Z,100399.72
2023-02-14T03:10:14.081Z,100411.03
2023-02-14T03:16:00.878Z,100414.44
2023-02-14T03:21:38.905Z,100412.66
2023-02-14T03:27:14.854Z,100422.34
2023-02-14T03:32:49.815Z,100423.22
2023-02-14T03:38:20.989Z,100423.22
2023-02-14T03:43:51.869Z,100417.00
2023-02-14T03:49:21.881Z,100410.97
2023-02-14T03:54:49.840Z,100407.53
2023-02-14T04:00:18.862Z,100410.28
2023-02-14T04:05:45.017Z,100408.66
2023-02-14T04:11:10.842Z,100401.78
2023-02-14T04:16:58.834Z,100388.56
2023-02-14T04:22:23.862Z,100382.66
2023-02-14T04:27:47.905Z,100386.25
2023-02-14T04:33:17.058Z,100387.88
2023-02-14T04:38:40.864Z,100375.41
2023-02-14T04:44:05.864Z,100381.47
2023-02-14T04:49:33.923Z,100381.44
2023-02-14T04:54:58.912Z,100377.06
2023-02-14T05:00:24.974Z,100372.66
2023-02-14T05:05:52.871Z,100363.16
2023-02-14T05:11:16.914Z,100357.13
2023-02-14T05:16:41.977Z,100353.72
2023-02-14T05:22:08.886Z,100353.84
2023-02-14T05:27:34.128Z,100358.44
2023-02-14T05:32:57.920Z,100355.72
2023-02-14T05:38:25.889Z,100349.78
2023-02-14T05:43:50.878Z,100362.00
2023-02-14T05:49:15.902Z,100360.19
2023-02-14T05:54:43.899Z,100364.53
2023-02-14T06:00:08.894Z,100363.63
2023-02-14T06:05:35.152Z,100365.38
2023-02-14T06:11:02.977Z,100368.88
2023-02-14T06:16:26.932Z,100364.47
2023-02-14T06:21:51.917Z,100381.16
2023-02-14T06:27:18.932Z,100374.16
2023-02-14T06:32:43.947Z,100375.09
2023-02-14T06:38:08.946Z,100374.19
2023-02-14T06:43:36.920Z,100380.31
2023-02-14T06:49:00.943Z,100383.84
2023-02-14T06:54:26.887Z,100388.19
2023-02-14T06:59:53.906Z,100389.88
2023-02-14T07:05:19.016Z,100377.53
2023-02-14T07:10:43.944Z,100370.41
2023-02-14T07:16:12.201Z,100371.19
2023-02-14T07:21:35.926Z,100364.09
2023-02-14T07:27:00.917Z,100356.06
2023-02-14T07:32:29.928Z,100354.16
2023-02-14T07:37:54.931Z,100351.41
2023-02-14T07:43:20.277Z,100354.72
2023-02-14T07:48:47.900Z,100365.97
2023-02-14T07:54:11.923Z,100373.75
2023-02-14T07:59:43.929Z,100366.50
2023-02-14T08:05:12.039Z,100363.59
2023-02-14T08:10:35.959Z,100367.78
2023-02-14T08:16:18.239Z,100374.59
2023-02-14T08:21:45.950Z,100373.44
2023-02-14T08:27:10.955Z,100384.63
2023-02-14T08:32:37.021Z,100382.56
2023-02-14T08:38:04.994Z,100373.38
2023-02-14T08:43:33.275Z,100378.34
2023-02-14T08:49:00.078Z,100392.88
2023-02-14T08:54:26.966Z,100393.34
2023-02-14T08:59:51.931Z,100397.19
2023-02-14T09:05:17.980Z,100397.69
2023-02-14T09:10:52.926Z,100400.78
2023-02-14T09:16:20.036Z,100401.16
2023-02-14T09:21:46.175Z,100391.75
2023-02-14T09:27:14.010Z,100405.44
2023-02-14T09:32:38.950Z,100404.63
2023-02-14T09:38:16.951Z,100395.91
2023-02-14T09:43:50.970Z,100399.63
2023-02-14T09:49:23.074Z,100387.41
2023-02-14T09:54:51.134Z,100376.16
2023-02-14T10:00:29.975Z,100366.53
2023-02-14T10:05:59.957Z,100352.59
2023-02-14T10:11:30.991Z,100351.91
2023-02-14T10:17:03.012Z,100336.50
2023-02-14T10:22:31.987Z,100321.66
2023-02-14T10:28:00.045Z,100295.31
2023-02-14T10:33:30.014Z,100280.50
2023-02-14T10:39:02.983Z,100281.22
2023-02-14T11:09:47.915Z,100239.25
2023-02-14T11:38:37.000Z,100203.06
2023-02-14T11:44:02.010Z,100182.13
2023-02-14T11:49:38.008Z,100193.41
2023-02-14T11:55:04.989Z,100177.91
2023-02-14T12:00:32.997Z,100181.66
2023-02-14T12:06:07.027Z,100173.47
2023-02-14T12:11:36.128Z,100160.56
2023-02-14T12:17:11.102Z,100150.50
2023-02-14T12:22:41.034Z,100136.69
2023-02-14T12:28:14.055Z,100130.00
2023-02-14T12:33:39.041Z,100122.19
2023-02-14T12:39:24.023Z,100103.31
2023-02-14T12:45:01.074Z,100103.94
2023-02-14T12:50:44.031Z,100086.59
2023-02-14T12:56:20.088Z,100080.84
2023-02-14T13:02:31.119Z,100073.56
2023-02-14T13:08:10.044Z,100079.00
2023-02-14T13:13:42.155Z,100071.78
2023-02-14T13:19:15.057Z,100062.38
2023-02-14T13:24:43.068Z,100044.13
2023-02-14T13:30:13.125Z,100042.34
2023-02-14T13:35:44.084Z,100030.63
2023-02-14T13:41:12.068Z,100028.72
2023-02-14T13:47:01.071Z,100025.06
2023-02-14T13:52:55.067Z,100018.28
2023-02-14T13:58:23.071Z,100011.78
2023-02-14T14:04:07.146Z,100007.34
2023-02-14T14:10:18.111Z,100002.69
2023-02-14T14:15:43.091Z,100001.81
2023-02-14T14:21:07.088Z,99993.09
2023-02-14T14:26:46.096Z,99981.69
2023-02-14T14:32:10.153Z,99985.16
2023-02-14T14:37:37.081Z,99983.69
2023-02-14T14:43:04.077Z,99984.91
2023-02-14T14:48:36.230Z,99983.50
2023-02-14T14:54:03.125Z,99972.00
2023-02-14T14:59:42.135Z,99965.00
2023-02-14T15:05:06.084Z,99956.47
2023-02-14T15:10:33.097Z,99961.81
2023-02-14T15:16:04.114Z,99950.09
2023-02-14T15:21:30.164Z,99946.38
2023-02-14T15:26:55.176Z,99939.78
2023-02-14T15:32:23.292Z,99945.44
2023-02-14T15:37:49.132Z,99934.00
2023-02-14T15:43:25.145Z,99926.75
2023-02-14T15:48:56.123Z,99930.91
2023-02-14T15:54:30.132Z,99931.31
2023-02-14T15:59:58.206Z,99931.34
2023-02-14T16:05:35.156Z,99932.19
2023-02-14T16:11:16.153Z,99926.78
2023-02-14T16:17:06.162Z,99919.72
2023-02-14T16:22:44.126Z,99928.28
2023-02-14T16:28:09.235Z,99934.03
2023-02-14T16:33:36.154Z,99931.41
2023-02-14T16:39:11.165Z,99938.75
2023-02-14T16:44:40.594Z,99940.28
2023-02-14T16:50:04.294Z,99949.66
2023-02-14T16:55:35.141Z,99955.00
2023-02-14T17:01:01.470Z,99957.13
2023-02-14T17:06:31.150Z,99952.59
2023-02-14T17:12:01.192Z,99946.75
2023-02-14T17:17:27.190Z,99944.13
2023-02-14T17:22:52.176Z,99950.31
2023-02-14T17:28:20.166Z,99959.28
2023-02-14T17:33:45.273Z,99956.63
2023-02-14T17:39:10.205Z,99961.03
2023-02-14T17:44:42.203Z,99972.28
2023-02-14T17:50:07.188Z,99966.75
2023-02-14T17:55:31.183Z,99966.56
2023-02-14T18:00:59.444Z,99966.38
2023-02-14T18:06:26.183Z,99957.28
2023-02-14T18:11:52.181Z,99949.16
2023-02-14T18:17:19.216Z,99954.28
2023-02-14T18:22:44.215Z,99947.66
2023-02-14T18:28:08.220Z,99951.75
2023-02-14T18:33:36.190Z,99950.31
2023-02-14T18:39:03.210Z,99950.00
2023-02-14T18:44:28.225Z,99948.53
2023-02-14T18:49:55.264Z,99943.47
2023-02-14T18:55:21.248Z,99938.56
2023-02-14T19:00:45.265Z,99929.09
2023-02-14T19:06:13.252Z,99924.91
2023-02-14T19:11:40.213Z,99922.41
2023-02-14T19:17:05.241Z,99918.28
2023-02-14T19:22:32.240Z,99914.06
2023-02-14T19:27:57.333Z,99908.16
2023-02-14T19:33:21.245Z,99911.09
2023-02-14T19:38:55.232Z,99902.41
2023-02-14T19:44:25.035Z,99901.69
2023-02-14T19:49:50.229Z,99892.06
2023-02-14T19:55:26.253Z,99898.44
2023-02-14T20:00:50.252Z,99889.84
2023-02-14T20:06:15.336Z,99894.41
2023-02-14T20:11:48.264Z,99887.44
2023-02-14T20:17:15.258Z,99889.06
2023-02-14T20:22:39.267Z,99891.66
2023-02-14T20:28:07.240Z,99878.56
2023-02-14T20:33:31.272Z,99876.06
2023-02-14T20:38:56.277Z,99875.47
2023-02-14T20:44:26.357Z,99864.19
2023-02-14T20:49:51.281Z,99869.09
2023-02-14T20:55:15.298Z,99873.75
2023-02-14T21:00:43.287Z,99875.84
2023-02-14T21:06:07.297Z,99861.22
2023-02-14T21:11:34.287Z,99863.47
2023-02-14T21:17:01.311Z,99868.19
2023-02-14T21:22:26.264Z,99860.69
2023-02-14T21:27:50.275Z,99851.31
2023-02-14T21:33:22.304Z,99850.84
2023-02-14T21:38:46.286Z,99841.13
2023-02-14T21:44:12.398Z,99845.75
2023-02-14T21:49:52.348Z,99856.44
2023-02-14T21:55:17.275Z,99861.84
2023-02-14T22:00:41.333Z,99856.53
2023-02-14T22:06:14.294Z,99852.91
2023-02-14T22:11:40.305Z,99848.59
2023-02-14T22:17:06.299Z,99847.91
2023-02-14T22:22:33.308Z,99842.19
2023-02-14T22:27:58.301Z,99838.00
2023-02-14T22:33:22.314Z,99847.09
2023-02-14T22:38:50.330Z,99850.94
2023-02-14T22:44:14.333Z,99842.25
2023-02-14T22:49:39.339Z,99839.97
2023-02-14T22:55:07.318Z,99834.13
2023-02-14T23:00:33.406Z,99839.16
2023-02-14T23:05:57.312Z,99823.66
2023-02-14T23:11:26.304Z,99825.06
2023-02-14T23:17:04.322Z,99830.78
2023-02-14T23:22:31.362Z,99824.06
2023-02-14T23:28:00.344Z,99805.81
2023-02-14T23:33:25.461Z,99816.75
2023-02-14T23:38:56.333Z,99805.72
2023-02-14T23:44:25.339Z,99808.91
2023-02-14T23:49:52.360Z,99799.56
2023-02-14T23:55:17.334Z,99791.34
